SMOKE12 ETSN-ETSN
Flight info
| Callsign | SMOKE12 |
|---|---|
| Flight time | 2h 42m |
| Altitude | 40000 |
| Route | ETSN2M DONIX DCT VALAR DCT EEDER DCT OSB DCT NDO/M085F240 STAY1/0130 WTM/M085F410 DCT EKKIH DCT IBAGU DCT BIGGE DCT GISAT DCT CELQU DCT NEU DCT |
| Aircraft | EUFI/M-GILRTUVZ/S |
Departure
| Time | 2026-05-06 17:36 |
|---|---|
| Airport | Neuburg Air Base (ETSN) |
Arrival
| Time | 2026-05-06 20:18 |
|---|---|
| Airport | Neuburg Air Base (ETSN) |
| Time | Latitude | Longitude | Altitude | Speed | Heading |
|---|---|---|---|---|---|
| 2026-05-06 16:21 | 48.70808 | 11.22857 | 1251 ft | 0 kts | 19° |
| 2026-05-06 17:07 | 48.70825 | 11.22853 | 1255 ft | 9 kts | 315° |
| 2026-05-06 17:08 | 48.70875 | 11.22776 | 1257 ft | 10 kts | 334° |
| 2026-05-06 17:08 | 48.70922 | 11.22784 | 1260 ft | 8 kts | 30° |
| 2026-05-06 17:08 | 48.70972 | 11.22825 | 1251 ft | 10 kts | 8° |
| 2026-05-06 17:08 | 48.71002 | 11.22901 | 1252 ft | 11 kts | 91° |
| 2026-05-06 17:09 | 48.70981 | 11.22946 | 1254 ft | 6 kts | 180° |
| 2026-05-06 17:09 | 48.70979 | 11.22946 | 1251 ft | 0 kts | 180° |
| 2026-05-06 17:33 | 48.70970 | 11.22946 | 1251 ft | 7 kts | 180° |
| 2026-05-06 17:33 | 48.70965 | 11.22995 | 1260 ft | 5 kts | 26° |
| 2026-05-06 17:34 | 48.70999 | 11.23005 | 1253 ft | 9 kts | 44° |
| 2026-05-06 17:34 | 48.71001 | 11.23087 | 1251 ft | 5 kts | 90° |
| 2026-05-06 17:34 | 48.71001 | 11.23095 | 1251 ft | 0 kts | 92° |
| 2026-05-06 17:35 | 48.71001 | 11.23102 | 1251 ft | 9 kts | 92° |
| 2026-05-06 17:35 | 48.71039 | 11.23174 | 1251 ft | 9 kts | 7° |
| 2026-05-06 17:35 | 48.71082 | 11.23158 | 1254 ft | 4 kts | 289° |
| 2026-05-06 17:36 | 48.71083 | 11.23083 | 1251 ft | 0 kts | 270° |
| 2026-05-06 17:36 | 48.71083 | 11.22974 | 1252 ft | 58 kts | 269° |
| 2026-05-06 17:36 | 48.71092 | 11.21624 | 1290 ft | 196 kts | 269° |
| 2026-05-06 17:36 | 48.71115 | 11.19204 | 2220 ft | 263 kts | 268° |
| 2026-05-06 17:37 | 48.71069 | 11.17229 | 3063 ft | 297 kts | 268° |
| 2026-05-06 17:37 | 48.70932 | 11.12109 | 5229 ft | 425 kts | 266° |
| 2026-05-06 17:37 | 48.70721 | 11.07837 | 7168 ft | 331 kts | 264° |
| 2026-05-06 17:37 | 48.70622 | 11.05686 | 8083 ft | 304 kts | 264° |
| 2026-05-06 17:38 | 48.70462 | 11.02271 | 9545 ft | 354 kts | 264° |
| 2026-05-06 17:38 | 48.70217 | 10.97411 | 11733 ft | 336 kts | 264° |
| 2026-05-06 17:38 | 48.70103 | 10.95008 | 12781 ft | 348 kts | 264° |
| 2026-05-06 17:38 | 48.69912 | 10.90054 | 14946 ft | 350 kts | 264° |
| 2026-05-06 17:39 | 48.69996 | 10.87508 | 16046 ft | 367 kts | 279° |
| 2026-05-06 17:39 | 48.71106 | 10.83897 | 17657 ft | 411 kts | 306° |
| 2026-05-06 17:39 | 48.73247 | 10.81244 | 19027 ft | 395 kts | 334° |
| 2026-05-06 17:39 | 48.76082 | 10.80248 | 19942 ft | 448 kts | 356° |
| 2026-05-06 17:40 | 48.79111 | 10.79893 | 21051 ft | 416 kts | 354° |
| 2026-05-06 17:40 | 48.82058 | 10.79459 | 22676 ft | 424 kts | 353° |
| 2026-05-06 17:40 | 48.85026 | 10.79037 | 24337 ft | 437 kts | 354° |
| 2026-05-06 17:40 | 48.88092 | 10.78608 | 26081 ft | 442 kts | 353° |
| 2026-05-06 17:41 | 48.91135 | 10.78202 | 27414 ft | 439 kts | 355° |
| 2026-05-06 17:41 | 48.94210 | 10.77922 | 28831 ft | 437 kts | 356° |
| 2026-05-06 17:41 | 48.97224 | 10.77684 | 30282 ft | 431 kts | 356° |
| 2026-05-06 17:41 | 49.00158 | 10.77453 | 31659 ft | 418 kts | 350° |
| 2026-05-06 17:42 | 49.02819 | 10.76392 | 32983 ft | 396 kts | 347° |
| 2026-05-06 17:42 | 49.05547 | 10.75840 | 34105 ft | 391 kts | 349° |
| 2026-05-06 17:42 | 49.08310 | 10.75349 | 35003 ft | 419 kts | 350° |
| 2026-05-06 17:42 | 49.11292 | 10.74805 | 36124 ft | 431 kts | 350° |
| 2026-05-06 17:43 | 49.14257 | 10.74265 | 36949 ft | 435 kts | 350° |
| 2026-05-06 17:43 | 49.17293 | 10.73700 | 37203 ft | 448 kts | 350° |
| 2026-05-06 17:43 | 49.20409 | 10.73042 | 37445 ft | 463 kts | 345° |
| 2026-05-06 17:43 | 49.23020 | 10.71443 | 37370 ft | 466 kts | 326° |
| 2026-05-06 17:44 | 49.25791 | 10.68626 | 36844 ft | 469 kts | 321° |
| 2026-05-06 17:44 | 49.28239 | 10.66065 | 36429 ft | 410 kts | 322° |
| 2026-05-06 17:44 | 49.30696 | 10.63568 | 35967 ft | 438 kts | 322° |
| 2026-05-06 17:44 | 49.33298 | 10.60902 | 35840 ft | 463 kts | 322° |
| 2026-05-06 17:45 | 49.36053 | 10.58140 | 35994 ft | 490 kts | 323° |
| 2026-05-06 17:45 | 49.39003 | 10.55317 | 36284 ft | 516 kts | 325° |
| 2026-05-06 17:45 | 49.42189 | 10.52612 | 37167 ft | 527 kts | 328° |
| 2026-05-06 17:45 | 49.45378 | 10.49799 | 38717 ft | 520 kts | 325° |
| 2026-05-06 17:46 | 49.48417 | 10.46759 | 39580 ft | 534 kts | 323° |
| 2026-05-06 17:46 | 49.51618 | 10.43510 | 39695 ft | 549 kts | 323° |
| 2026-05-06 17:46 | 49.57380 | 10.38146 | 39887 ft | 541 kts | 326° |
| 2026-05-06 17:47 | 49.60592 | 10.35216 | 40052 ft | 547 kts | 327° |
| 2026-05-06 17:47 | 49.63842 | 10.32023 | 39959 ft | 556 kts | 324° |
| 2026-05-06 17:47 | 49.66974 | 10.29025 | 39969 ft | 498 kts | 326° |
| 2026-05-06 17:47 | 49.69905 | 10.26220 | 39997 ft | 489 kts | 324° |
| 2026-05-06 17:48 | 49.72836 | 10.23375 | 40014 ft | 507 kts | 324° |
| 2026-05-06 17:48 | 49.75834 | 10.20452 | 40023 ft | 498 kts | 324° |
| 2026-05-06 17:48 | 49.78729 | 10.17593 | 39982 ft | 480 kts | 323° |
| 2026-05-06 17:48 | 49.81582 | 10.14818 | 39858 ft | 474 kts | 325° |
| 2026-05-06 17:49 | 49.87315 | 10.09368 | 39797 ft | 505 kts | 325° |
| 2026-05-06 17:49 | 49.90379 | 10.06404 | 39782 ft | 532 kts | 325° |
| 2026-05-06 17:49 | 49.93559 | 10.03296 | 39781 ft | 549 kts | 324° |
| 2026-05-06 17:50 | 49.99999 | 9.96952 | 39812 ft | 529 kts | 325° |
| 2026-05-06 17:50 | 50.06202 | 9.90899 | 39801 ft | 523 kts | 325° |
| 2026-05-06 17:51 | 50.12328 | 9.84824 | 39811 ft | 523 kts | 324° |
| 2026-05-06 17:51 | 50.18491 | 9.78676 | 39762 ft | 528 kts | 324° |
| 2026-05-06 17:52 | 50.24748 | 9.72540 | 39764 ft | 530 kts | 325° |
| 2026-05-06 17:52 | 50.31025 | 9.66442 | 39780 ft | 530 kts | 325° |
| 2026-05-06 17:53 | 50.37228 | 9.60238 | 39786 ft | 529 kts | 324° |
| 2026-05-06 17:53 | 50.43396 | 9.54044 | 39813 ft | 528 kts | 324° |
| 2026-05-06 17:54 | 50.49590 | 9.47811 | 39786 ft | 530 kts | 324° |
| 2026-05-06 17:54 | 50.55787 | 9.41567 | 39798 ft | 523 kts | 324° |
| 2026-05-06 17:55 | 50.61964 | 9.35327 | 39768 ft | 526 kts | 324° |
| 2026-05-06 17:55 | 50.68101 | 9.29079 | 39791 ft | 528 kts | 324° |
| 2026-05-06 17:56 | 50.74275 | 9.22778 | 39834 ft | 529 kts | 324° |
| 2026-05-06 17:56 | 50.80462 | 9.16455 | 39873 ft | 529 kts | 324° |
| 2026-05-06 17:57 | 50.86671 | 9.10098 | 39832 ft | 530 kts | 324° |
| 2026-05-06 17:57 | 50.92882 | 9.03731 | 39798 ft | 530 kts | 324° |
| 2026-05-06 17:58 | 50.98982 | 8.97472 | 39827 ft | 521 kts | 324° |
| 2026-05-06 17:58 | 51.05093 | 8.91426 | 39855 ft | 512 kts | 333° |
| 2026-05-06 17:59 | 51.08562 | 8.90061 | 39554 ft | 515 kts | 349° |
| 2026-05-06 17:59 | 51.12015 | 8.88890 | 39478 ft | 514 kts | 343° |
| 2026-05-06 17:59 | 51.15559 | 8.87018 | 39561 ft | 548 kts | 334° |
| 2026-05-06 17:59 | 51.19189 | 8.85040 | 39762 ft | 540 kts | 340° |
| 2026-05-06 18:00 | 51.26227 | 8.81115 | 39784 ft | 537 kts | 338° |
| 2026-05-06 18:00 | 51.33222 | 8.77125 | 39838 ft | 535 kts | 338° |
| 2026-05-06 18:01 | 51.40232 | 8.73124 | 39860 ft | 534 kts | 338° |
| 2026-05-06 18:01 | 51.47244 | 8.69126 | 39892 ft | 534 kts | 338° |
| 2026-05-06 18:02 | 51.54259 | 8.65435 | 39967 ft | 533 kts | 339° |
| 2026-05-06 18:02 | 51.61321 | 8.61746 | 39916 ft | 534 kts | 339° |
| 2026-05-06 18:03 | 51.68369 | 8.57862 | 39860 ft | 534 kts | 338° |
| 2026-05-06 18:03 | 51.75383 | 8.53890 | 39850 ft | 534 kts | 338° |
| 2026-05-06 18:04 | 51.82347 | 8.49921 | 39875 ft | 523 kts | 338° |
| 2026-05-06 18:04 | 51.89242 | 8.45996 | 39825 ft | 531 kts | 338° |
| 2026-05-06 18:05 | 51.96297 | 8.42015 | 39913 ft | 522 kts | 338° |
| 2026-05-06 18:05 | 51.99659 | 8.40121 | 39959 ft | 501 kts | 338° |
| 2026-05-06 18:05 | 52.02924 | 8.38206 | 39949 ft | 508 kts | 337° |
| 2026-05-06 18:06 | 52.06326 | 8.36185 | 39934 ft | 537 kts | 337° |
| 2026-05-06 18:06 | 52.09914 | 8.34047 | 39895 ft | 555 kts | 337° |
| 2026-05-06 18:06 | 52.17022 | 8.29960 | 39896 ft | 525 kts | 339° |
| 2026-05-06 18:07 | 52.23920 | 8.26850 | 39778 ft | 495 kts | 11° |
| 2026-05-06 18:07 | 52.27320 | 8.28265 | 39725 ft | 516 kts | 13° |
| 2026-05-06 18:07 | 52.30879 | 8.29788 | 39743 ft | 544 kts | 12° |
| 2026-05-06 18:08 | 52.34604 | 8.31326 | 39785 ft | 563 kts | 12° |
| 2026-05-06 18:08 | 52.38458 | 8.32526 | 39892 ft | 568 kts | 7° |
| 2026-05-06 18:08 | 52.46352 | 8.34516 | 39841 ft | 575 kts | 6° |
| 2026-05-06 18:09 | 52.50298 | 8.35159 | 39675 ft | 552 kts | 10° |
| 2026-05-06 18:09 | 52.54079 | 8.36119 | 39919 ft | 556 kts | 2° |
| 2026-05-06 18:09 | 52.57919 | 8.36558 | 39937 ft | 544 kts | 2° |
| 2026-05-06 18:09 | 52.61698 | 8.36983 | 39945 ft | 543 kts | 2° |
| 2026-05-06 18:10 | 52.69142 | 8.38259 | 39926 ft | 543 kts | 7° |
| 2026-05-06 18:10 | 52.72634 | 8.40048 | 39792 ft | 495 kts | 30° |
| 2026-05-06 18:10 | 52.75844 | 8.41259 | 39607 ft | 485 kts | 5° |
| 2026-05-06 18:11 | 52.79256 | 8.42030 | 39589 ft | 504 kts | 6° |
| 2026-05-06 18:11 | 52.81584 | 8.42568 | 39584 ft | 515 kts | 6° |
| 2026-05-06 18:11 | 52.86571 | 8.43773 | 39829 ft | 506 kts | 8° |
| 2026-05-06 18:12 | 52.90237 | 8.44548 | 39891 ft | 538 kts | 5° |
| 2026-05-06 18:12 | 52.93931 | 8.45328 | 39882 ft | 535 kts | 6° |
| 2026-05-06 18:12 | 53.01353 | 8.47103 | 39915 ft | 542 kts | 6° |
| 2026-05-06 18:13 | 53.08768 | 8.48931 | 39906 ft | 537 kts | 7° |
| 2026-05-06 18:13 | 53.16211 | 8.50700 | 39654 ft | 545 kts | 6° |
| 2026-05-06 18:14 | 53.19988 | 8.51595 | 38969 ft | 548 kts | 6° |
| 2026-05-06 18:14 | 53.22478 | 8.52203 | 38539 ft | 546 kts | 6° |
| 2026-05-06 18:14 | 53.26159 | 8.53105 | 37703 ft | 536 kts | 6° |
| 2026-05-06 18:14 | 53.29921 | 8.53988 | 36432 ft | 541 kts | 6° |
| 2026-05-06 18:15 | 53.33569 | 8.54837 | 35310 ft | 527 kts | 6° |
| 2026-05-06 18:15 | 53.37155 | 8.55674 | 34300 ft | 514 kts | 6° |
| 2026-05-06 18:15 | 53.40763 | 8.56514 | 33194 ft | 525 kts | 6° |
| 2026-05-06 18:15 | 53.44367 | 8.57347 | 32022 ft | 523 kts | 6° |
| 2026-05-06 18:16 | 53.48004 | 8.58173 | 30783 ft | 534 kts | 7° |
| 2026-05-06 18:16 | 53.51713 | 8.59018 | 29505 ft | 538 kts | 7° |
| 2026-05-06 18:16 | 53.55320 | 8.59890 | 28276 ft | 530 kts | 7° |
| 2026-05-06 18:16 | 53.59006 | 8.60800 | 27094 ft | 538 kts | 7° |
| 2026-05-06 18:17 | 53.62769 | 8.61732 | 25927 ft | 540 kts | 7° |
| 2026-05-06 18:17 | 53.66481 | 8.62649 | 24734 ft | 542 kts | 7° |
| 2026-05-06 18:17 | 53.70221 | 8.63572 | 23707 ft | 540 kts | 7° |
| 2026-05-06 18:17 | 53.73934 | 8.64493 | 22820 ft | 532 kts | 7° |
| 2026-05-06 18:18 | 53.77672 | 8.65424 | 21694 ft | 571 kts | 7° |
| 2026-05-06 18:18 | 53.81436 | 8.65026 | 16506 ft | 585 kts | 320° |
| 2026-05-06 18:18 | 53.83586 | 8.59317 | 16599 ft | 572 kts | 283° |
| 2026-05-06 18:18 | 53.84385 | 8.52976 | 18404 ft | 554 kts | 279° |
| 2026-05-06 18:19 | 53.84278 | 8.46458 | 18651 ft | 553 kts | 253° |
| 2026-05-06 18:19 | 53.82588 | 8.40646 | 18234 ft | 546 kts | 240° |
| 2026-05-06 18:19 | 53.80654 | 8.35179 | 17904 ft | 537 kts | 238° |
| 2026-05-06 18:19 | 53.78780 | 8.29801 | 17747 ft | 532 kts | 240° |
| 2026-05-06 18:20 | 53.76817 | 8.24378 | 17915 ft | 547 kts | 238° |
| 2026-05-06 18:20 | 53.74733 | 8.19032 | 17933 ft | 554 kts | 236° |
| 2026-05-06 18:20 | 53.72518 | 8.13690 | 17854 ft | 557 kts | 234° |
| 2026-05-06 18:20 | 53.70193 | 8.08418 | 17746 ft | 558 kts | 233° |
| 2026-05-06 18:21 | 53.67773 | 8.03266 | 17640 ft | 559 kts | 231° |
| 2026-05-06 18:21 | 53.65276 | 7.98274 | 17562 ft | 559 kts | 229° |
| 2026-05-06 18:21 | 53.62672 | 7.93383 | 17496 ft | 559 kts | 228° |
| 2026-05-06 18:21 | 53.59693 | 7.89470 | 17468 ft | 561 kts | 176° |
| 2026-05-06 18:22 | 53.56244 | 7.92618 | 16761 ft | 584 kts | 135° |
| 2026-05-06 18:22 | 53.54904 | 7.98912 | 15216 ft | 587 kts | 97° |
| 2026-05-06 18:22 | 53.54398 | 8.05676 | 14913 ft | 588 kts | 96° |
| 2026-05-06 18:22 | 53.53934 | 8.12520 | 14847 ft | 588 kts | 96° |
| 2026-05-06 18:23 | 53.53475 | 8.19341 | 14914 ft | 584 kts | 96° |
| 2026-05-06 18:23 | 53.53624 | 8.26025 | 14817 ft | 586 kts | 65° |
| 2026-05-06 18:23 | 53.55348 | 8.32444 | 14534 ft | 610 kts | 64° |
| 2026-05-06 18:23 | 53.57128 | 8.38944 | 15263 ft | 612 kts | 64° |
| 2026-05-06 18:24 | 53.58914 | 8.45461 | 15982 ft | 608 kts | 65° |
| 2026-05-06 18:24 | 53.60610 | 8.51924 | 17065 ft | 605 kts | 66° |
| 2026-05-06 18:24 | 53.62392 | 8.58319 | 18461 ft | 601 kts | 63° |
| 2026-05-06 18:24 | 53.64209 | 8.64666 | 19365 ft | 601 kts | 65° |
| 2026-05-06 18:25 | 53.65956 | 8.71091 | 19819 ft | 608 kts | 65° |
| 2026-05-06 18:25 | 53.67634 | 8.77403 | 19652 ft | 571 kts | 62° |
| 2026-05-06 18:25 | 53.70062 | 8.82048 | 19988 ft | 503 kts | 34° |
| 2026-05-06 18:25 | 53.73067 | 8.84143 | 20430 ft | 446 kts | 9° |
| 2026-05-06 18:26 | 53.76072 | 8.84221 | 20651 ft | 419 kts | 347° |
| 2026-05-06 18:26 | 53.78717 | 8.82625 | 20765 ft | 401 kts | 329° |
| 2026-05-06 18:26 | 53.80940 | 8.79717 | 20870 ft | 415 kts | 310° |
| 2026-05-06 18:26 | 53.82372 | 8.76036 | 20915 ft | 345 kts | 293° |
| 2026-05-06 18:27 | 53.83087 | 8.72131 | 20841 ft | 382 kts | 278° |
| 2026-05-06 18:27 | 53.83128 | 8.67505 | 20844 ft | 376 kts | 261° |
| 2026-05-06 18:27 | 53.82397 | 8.63448 | 20868 ft | 361 kts | 248° |
| 2026-05-06 18:27 | 53.81495 | 8.59456 | 20964 ft | 364 kts | 251° |
| 2026-05-06 18:28 | 53.80743 | 8.55423 | 20979 ft | 369 kts | 252° |
| 2026-05-06 18:28 | 53.79871 | 8.51268 | 20969 ft | 378 kts | 250° |
| 2026-05-06 18:28 | 53.78965 | 8.47173 | 20853 ft | 351 kts | 251° |
| 2026-05-06 18:28 | 53.78124 | 8.43080 | 20864 ft | 376 kts | 249° |
| 2026-05-06 18:29 | 53.77185 | 8.39044 | 20868 ft | 371 kts | 249° |
| 2026-05-06 18:29 | 53.76222 | 8.34938 | 20878 ft | 373 kts | 249° |
| 2026-05-06 18:29 | 53.75301 | 8.30935 | 20897 ft | 362 kts | 249° |
| 2026-05-06 18:29 | 53.74385 | 8.27016 | 20911 ft | 346 kts | 248° |
| 2026-05-06 18:30 | 53.73497 | 8.23176 | 20877 ft | 358 kts | 249° |
| 2026-05-06 18:30 | 53.72584 | 8.19230 | 20898 ft | 363 kts | 249° |
| 2026-05-06 18:30 | 53.71657 | 8.15217 | 20900 ft | 370 kts | 249° |
| 2026-05-06 18:30 | 53.70755 | 8.11288 | 20904 ft | 349 kts | 249° |
| 2026-05-06 18:31 | 53.69860 | 8.07418 | 20879 ft | 361 kts | 249° |
| 2026-05-06 18:31 | 53.68934 | 8.03373 | 20890 ft | 375 kts | 249° |
| 2026-05-06 18:31 | 53.67995 | 7.99297 | 20892 ft | 373 kts | 249° |
| 2026-05-06 18:31 | 53.67060 | 7.95204 | 20925 ft | 373 kts | 249° |
| 2026-05-06 18:32 | 53.66135 | 7.91188 | 20943 ft | 362 kts | 249° |
| 2026-05-06 18:32 | 53.65257 | 7.87269 | 20887 ft | 354 kts | 249° |
| 2026-05-06 18:32 | 53.64246 | 7.83399 | 20915 ft | 368 kts | 239° |
| 2026-05-06 18:32 | 53.62637 | 7.80075 | 20926 ft | 375 kts | 223° |
| 2026-05-06 18:33 | 53.60456 | 7.77652 | 20926 ft | 368 kts | 206° |
| 2026-05-06 18:33 | 53.58079 | 7.76443 | 20898 ft | 362 kts | 190° |
| 2026-05-06 18:33 | 53.55439 | 7.76483 | 20960 ft | 373 kts | 173° |
| 2026-05-06 18:33 | 53.52966 | 7.77688 | 20983 ft | 392 kts | 157° |
| 2026-05-06 18:34 | 53.50699 | 7.80290 | 21044 ft | 400 kts | 137° |
| 2026-05-06 18:34 | 53.49028 | 7.84000 | 21011 ft | 389 kts | 120° |
| 2026-05-06 18:34 | 53.48050 | 7.88295 | 21008 ft | 403 kts | 103° |
| 2026-05-06 18:34 | 53.47889 | 7.92968 | 21084 ft | 411 kts | 80° |
| 2026-05-06 18:35 | 53.48825 | 7.97342 | 21005 ft | 379 kts | 66° |
| 2026-05-06 18:35 | 53.49856 | 8.01509 | 20891 ft | 395 kts | 67° |
| 2026-05-06 18:35 | 53.50923 | 8.05846 | 20882 ft | 394 kts | 67° |
| 2026-05-06 18:35 | 53.51958 | 8.10071 | 20937 ft | 390 kts | 67° |
| 2026-05-06 18:36 | 53.52968 | 8.14294 | 20943 ft | 391 kts | 69° |
| 2026-05-06 18:36 | 53.53936 | 8.18646 | 20677 ft | 410 kts | 68° |
| 2026-05-06 18:36 | 53.55037 | 8.23121 | 20269 ft | 416 kts | 67° |
| 2026-05-06 18:36 | 53.56192 | 8.27726 | 19682 ft | 431 kts | 66° |
| 2026-05-06 18:37 | 53.57402 | 8.32100 | 18950 ft | 403 kts | 58° |
| 2026-05-06 18:37 | 53.58526 | 8.34572 | 18507 ft | 397 kts | 45° |
| 2026-05-06 18:37 | 53.61603 | 8.37540 | 17482 ft | 392 kts | 7° |
| 2026-05-06 18:37 | 53.64363 | 8.37815 | 16560 ft | 403 kts | 0° |
| 2026-05-06 18:38 | 53.67092 | 8.38066 | 15689 ft | 379 kts | 3° |
| 2026-05-06 18:38 | 53.69682 | 8.38424 | 14829 ft | 368 kts | 1° |
| 2026-05-06 18:38 | 53.72171 | 8.38510 | 13978 ft | 382 kts | 2° |
| 2026-05-06 18:38 | 53.74715 | 8.38857 | 13107 ft | 346 kts | 1° |
| 2026-05-06 18:39 | 53.77080 | 8.38878 | 12182 ft | 346 kts | 359° |
| 2026-05-06 18:39 | 53.79556 | 8.39007 | 11082 ft | 365 kts | 2° |
| 2026-05-06 18:39 | 53.81943 | 8.39251 | 9846 ft | 338 kts | 0° |
| 2026-05-06 18:40 | 53.86502 | 8.39163 | 7573 ft | 307 kts | 0° |
| 2026-05-06 18:40 | 53.88729 | 8.38742 | 6925 ft | 330 kts | 342° |
| 2026-05-06 18:40 | 53.90584 | 8.36616 | 6657 ft | 330 kts | 317° |
| 2026-05-06 18:40 | 53.92239 | 8.33808 | 6502 ft | 333 kts | 316° |
| 2026-05-06 18:41 | 53.93881 | 8.30956 | 6369 ft | 330 kts | 316° |
| 2026-05-06 18:41 | 53.95460 | 8.28156 | 6178 ft | 322 kts | 316° |
| 2026-05-06 18:41 | 53.96983 | 8.25307 | 6008 ft | 327 kts | 314° |
| 2026-05-06 18:41 | 53.98513 | 8.22318 | 5436 ft | 330 kts | 309° |
| 2026-05-06 18:42 | 53.99943 | 8.19335 | 4793 ft | 321 kts | 310° |
| 2026-05-06 18:42 | 54.01232 | 8.16355 | 4197 ft | 313 kts | 308° |
| 2026-05-06 18:42 | 54.02470 | 8.13449 | 3608 ft | 290 kts | 309° |
| 2026-05-06 18:42 | 54.03635 | 8.10621 | 3004 ft | 336 kts | 305° |
| 2026-05-06 18:43 | 54.04931 | 8.07095 | 2344 ft | 337 kts | 309° |
| 2026-05-06 18:43 | 54.06428 | 8.04085 | 1986 ft | 325 kts | 314° |
| 2026-05-06 18:43 | 54.07768 | 8.01252 | 1685 ft | 306 kts | 313° |
| 2026-05-06 18:43 | 54.09136 | 7.98435 | 1476 ft | 311 kts | 313° |
| 2026-05-06 18:44 | 54.10355 | 7.95479 | 1239 ft | 307 kts | 298° |
| 2026-05-06 18:44 | 54.11434 | 7.92389 | 976 ft | 304 kts | 297° |
| 2026-05-06 18:44 | 54.12603 | 7.89489 | 1049 ft | 291 kts | 322° |
| 2026-05-06 18:44 | 54.14209 | 7.87494 | 1121 ft | 303 kts | 335° |
| 2026-05-06 18:45 | 54.15992 | 7.85765 | 1148 ft | 297 kts | 333° |
| 2026-05-06 18:45 | 54.17740 | 7.83965 | 1221 ft | 289 kts | 330° |
| 2026-05-06 18:45 | 54.19662 | 7.83885 | 1044 ft | 327 kts | 41° |
| 2026-05-06 18:45 | 54.20225 | 7.85936 | 935 ft | 237 kts | 84° |
| 2026-05-06 18:46 | 54.19693 | 7.90696 | 906 ft | 332 kts | 115° |
| 2026-05-06 18:46 | 54.17898 | 7.93342 | 786 ft | 369 kts | 144° |
| 2026-05-06 18:46 | 54.15789 | 7.94134 | 920 ft | 300 kts | 189° |
| 2026-05-06 18:46 | 54.13604 | 7.93648 | 1029 ft | 327 kts | 184° |
| 2026-05-06 18:47 | 54.11327 | 7.93248 | 1842 ft | 334 kts | 184° |
| 2026-05-06 18:47 | 54.09063 | 7.92859 | 1972 ft | 320 kts | 182° |
| 2026-05-06 18:47 | 54.06850 | 7.92547 | 2012 ft | 313 kts | 182° |
| 2026-05-06 18:47 | 54.04566 | 7.92212 | 2067 ft | 335 kts | 183° |
| 2026-05-06 18:48 | 54.02373 | 7.91865 | 2066 ft | 318 kts | 184° |
| 2026-05-06 18:48 | 54.00167 | 7.91292 | 2036 ft | 309 kts | 185° |
| 2026-05-06 18:48 | 53.97999 | 7.90904 | 2024 ft | 323 kts | 184° |
| 2026-05-06 18:48 | 53.95767 | 7.90470 | 2052 ft | 325 kts | 182° |
| 2026-05-06 18:49 | 53.93537 | 7.90149 | 2079 ft | 321 kts | 181° |
| 2026-05-06 18:49 | 53.91459 | 7.89962 | 2107 ft | 292 kts | 180° |
| 2026-05-06 18:49 | 53.89274 | 7.89783 | 2113 ft | 323 kts | 180° |
| 2026-05-06 18:49 | 53.87072 | 7.89526 | 2139 ft | 325 kts | 182° |
| 2026-05-06 18:50 | 53.84722 | 7.89135 | 2160 ft | 344 kts | 184° |
| 2026-05-06 18:50 | 53.82489 | 7.88644 | 2192 ft | 309 kts | 186° |
| 2026-05-06 18:50 | 53.80354 | 7.88074 | 2214 ft | 324 kts | 186° |
| 2026-05-06 18:50 | 53.78090 | 7.87477 | 2260 ft | 326 kts | 186° |
| 2026-05-06 18:51 | 53.75790 | 7.86985 | 2489 ft | 370 kts | 182° |
| 2026-05-06 18:51 | 53.73163 | 7.86641 | 7242 ft | 383 kts | 182° |
| 2026-05-06 18:51 | 53.70369 | 7.86407 | 13237 ft | 456 kts | 181° |
| 2026-05-06 18:51 | 53.66841 | 7.86590 | 15973 ft | 560 kts | 178° |
| 2026-05-06 18:52 | 53.62833 | 7.88153 | 15815 ft | 599 kts | 161° |
| 2026-05-06 18:52 | 53.59168 | 7.90366 | 15927 ft | 556 kts | 157° |
| 2026-05-06 18:52 | 53.55700 | 7.93799 | 15690 ft | 597 kts | 141° |
| 2026-05-06 18:52 | 53.53404 | 7.99188 | 15712 ft | 576 kts | 108° |
| 2026-05-06 18:53 | 53.53596 | 8.05671 | 15439 ft | 555 kts | 65° |
| 2026-05-06 18:53 | 53.56053 | 8.10435 | 15570 ft | 541 kts | 31° |
| 2026-05-06 18:53 | 53.59719 | 8.11826 | 13833 ft | 518 kts | 338° |
| 2026-05-06 18:53 | 53.61514 | 8.07703 | 13401 ft | 230 kts | 216° |
| 2026-05-06 18:54 | 53.61447 | 8.09968 | 14194 ft | 267 kts | 349° |
| 2026-05-06 18:54 | 53.63570 | 8.06828 | 13668 ft | 442 kts | 1° |
| 2026-05-06 18:54 | 53.65075 | 8.04879 | 13397 ft | 282 kts | 313° |
| 2026-05-06 18:54 | 53.66830 | 8.02292 | 13297 ft | 396 kts | 317° |
| 2026-05-06 18:55 | 53.68730 | 7.98074 | 12978 ft | 521 kts | 294° |
| 2026-05-06 18:55 | 53.70285 | 7.99940 | 12025 ft | 471 kts | 86° |
| 2026-05-06 18:55 | 53.70091 | 8.06169 | 11595 ft | 596 kts | 103° |
| 2026-05-06 18:55 | 53.68433 | 8.09374 | 11864 ft | 569 kts | 174° |
| 2026-05-06 18:56 | 53.67285 | 8.04437 | 8523 ft | 416 kts | 342° |
| 2026-05-06 18:56 | 53.68510 | 8.07121 | 5929 ft | 533 kts | 96° |
| 2026-05-06 18:56 | 53.65607 | 8.10169 | 8952 ft | 571 kts | 176° |
| 2026-05-06 18:56 | 53.63073 | 8.06535 | 9902 ft | 588 kts | 275° |
| 2026-05-06 18:57 | 53.64268 | 8.02972 | 17405 ft | 68 kts | 317° |
| 2026-05-06 18:57 | 53.64018 | 8.00123 | 17636 ft | 298 kts | 247° |
| 2026-05-06 18:57 | 53.62810 | 8.00714 | 11753 ft | 378 kts | 39° |
| 2026-05-06 18:57 | 53.63736 | 8.04172 | 12134 ft | 376 kts | 148° |
| 2026-05-06 18:58 | 53.61453 | 8.03532 | 11533 ft | 378 kts | 221° |
| 2026-05-06 18:58 | 53.60105 | 7.99663 | 13159 ft | 410 kts | 252° |
| 2026-05-06 18:58 | 53.58945 | 7.94757 | 14407 ft | 487 kts | 243° |
| 2026-05-06 18:58 | 53.57635 | 7.89355 | 14859 ft | 469 kts | 250° |
| 2026-05-06 18:59 | 53.56488 | 7.84361 | 15070 ft | 438 kts | 249° |
| 2026-05-06 18:59 | 53.55416 | 7.80075 | 15163 ft | 357 kts | 246° |
| 2026-05-06 18:59 | 53.54451 | 7.76604 | 15334 ft | 314 kts | 247° |
| 2026-05-06 18:59 | 53.53453 | 7.72847 | 15415 ft | 392 kts | 246° |
| 2026-05-06 19:00 | 53.52639 | 7.68686 | 15605 ft | 364 kts | 253° |
| 2026-05-06 19:00 | 53.51869 | 7.64549 | 15757 ft | 371 kts | 250° |
| 2026-05-06 19:00 | 53.50791 | 7.60555 | 15606 ft | 380 kts | 251° |
| 2026-05-06 19:00 | 53.50487 | 7.56507 | 15788 ft | 320 kts | 283° |
| 2026-05-06 19:01 | 53.51505 | 7.52847 | 15672 ft | 392 kts | 308° |
| 2026-05-06 19:01 | 53.53734 | 7.50235 | 15582 ft | 371 kts | 341° |
| 2026-05-06 19:01 | 53.56388 | 7.50155 | 15525 ft | 378 kts | 13° |
| 2026-05-06 19:01 | 53.58639 | 7.51946 | 15350 ft | 377 kts | 39° |
| 2026-05-06 19:02 | 53.60026 | 7.55968 | 14771 ft | 411 kts | 76° |
| 2026-05-06 19:02 | 53.60177 | 7.60486 | 14260 ft | 366 kts | 93° |
| 2026-05-06 19:02 | 53.60014 | 7.64978 | 14167 ft | 398 kts | 94° |
| 2026-05-06 19:02 | 53.59819 | 7.69319 | 14066 ft | 376 kts | 94° |
| 2026-05-06 19:03 | 53.59636 | 7.73768 | 13981 ft | 377 kts | 92° |
| 2026-05-06 19:03 | 53.59469 | 7.78120 | 13872 ft | 385 kts | 94° |
| 2026-05-06 19:03 | 53.59274 | 7.82400 | 13728 ft | 378 kts | 93° |
| 2026-05-06 19:03 | 53.59089 | 7.87070 | 13560 ft | 356 kts | 93° |
| 2026-05-06 19:04 | 53.58925 | 7.90958 | 13540 ft | 359 kts | 92° |
| 2026-05-06 19:04 | 53.58743 | 7.95712 | 13548 ft | 416 kts | 93° |
| 2026-05-06 19:04 | 53.58555 | 8.00179 | 13390 ft | 339 kts | 95° |
| 2026-05-06 19:04 | 53.58364 | 8.03936 | 13373 ft | 366 kts | 91° |
| 2026-05-06 19:05 | 53.58181 | 8.08856 | 13334 ft | 421 kts | 94° |
| 2026-05-06 19:05 | 53.57955 | 8.13187 | 13390 ft | 358 kts | 79° |
| 2026-05-06 19:05 | 53.59250 | 8.12913 | 12779 ft | 289 kts | 287° |
| 2026-05-06 19:05 | 53.59914 | 8.09106 | 12522 ft | 381 kts | 293° |
| 2026-05-06 19:06 | 53.61889 | 8.05286 | 12255 ft | 498 kts | 319° |
| 2026-05-06 19:06 | 53.64533 | 8.00635 | 12426 ft | 593 kts | 304° |
| 2026-05-06 19:06 | 53.66108 | 7.94306 | 14201 ft | 585 kts | 282° |
| 2026-05-06 19:06 | 53.65528 | 7.88136 | 17645 ft | 473 kts | 199° |
| 2026-05-06 19:07 | 53.65059 | 7.91712 | 18230 ft | 447 kts | 69° |
| 2026-05-06 19:07 | 53.65115 | 7.97437 | 17638 ft | 552 kts | 110° |
| 2026-05-06 19:07 | 53.62979 | 8.03328 | 16623 ft | 614 kts | 134° |
| 2026-05-06 19:07 | 53.60270 | 8.08892 | 15965 ft | 620 kts | 128° |
| 2026-05-06 19:08 | 53.57398 | 8.12975 | 10230 ft | 555 kts | 108° |
| 2026-05-06 19:08 | 53.59619 | 8.18157 | 8152 ft | 583 kts | 22° |
| 2026-05-06 19:08 | 53.61356 | 8.16217 | 16145 ft | 423 kts | 228° |
| 2026-05-06 19:08 | 53.58898 | 8.14677 | 17518 ft | 335 kts | 222° |
| 2026-05-06 19:09 | 53.57454 | 8.12661 | 16492 ft | 256 kts | 276° |
| 2026-05-06 19:09 | 53.58875 | 8.11859 | 15604 ft | 300 kts | 30° |
| 2026-05-06 19:09 | 53.60412 | 8.14976 | 16248 ft | 395 kts | 67° |
| 2026-05-06 19:09 | 53.61251 | 8.19845 | 17272 ft | 456 kts | 73° |
| 2026-05-06 19:10 | 53.62110 | 8.24980 | 18336 ft | 468 kts | 75° |
| 2026-05-06 19:10 | 53.61491 | 8.28332 | 19290 ft | 288 kts | 216° |
| 2026-05-06 19:10 | 53.60129 | 8.25396 | 18702 ft | 364 kts | 234° |
| 2026-05-06 19:10 | 53.58437 | 8.21903 | 18686 ft | 414 kts | 230° |
| 2026-05-06 19:11 | 53.56513 | 8.17827 | 18853 ft | 465 kts | 256° |
| 2026-05-06 19:11 | 53.56944 | 8.12147 | 19179 ft | 550 kts | 283° |
| 2026-05-06 19:11 | 53.58271 | 8.05838 | 19204 ft | 584 kts | 293° |
| 2026-05-06 19:11 | 53.60080 | 7.99621 | 19202 ft | 576 kts | 297° |
| 2026-05-06 19:12 | 53.61927 | 7.93833 | 19180 ft | 561 kts | 297° |
| 2026-05-06 19:12 | 53.63685 | 7.87859 | 19052 ft | 571 kts | 288° |
| 2026-05-06 19:12 | 53.64255 | 7.81388 | 18881 ft | 558 kts | 269° |
| 2026-05-06 19:12 | 53.63947 | 7.74986 | 18731 ft | 543 kts | 263° |
| 2026-05-06 19:13 | 53.63356 | 7.68637 | 18647 ft | 551 kts | 260° |
| 2026-05-06 19:13 | 53.62659 | 7.62294 | 18754 ft | 554 kts | 259° |
| 2026-05-06 19:13 | 53.59911 | 7.58467 | 17769 ft | 590 kts | 188° |
| 2026-05-06 19:13 | 53.55854 | 7.58365 | 16449 ft | 578 kts | 180° |
| 2026-05-06 19:14 | 53.51901 | 7.57214 | 15478 ft | 583 kts | 231° |
| 2026-05-06 19:14 | 53.53475 | 7.56060 | 14315 ft | 395 kts | 108° |
| 2026-05-06 19:14 | 53.51199 | 7.58370 | 16683 ft | 437 kts | 179° |
| 2026-05-06 19:14 | 53.51112 | 7.56888 | 14946 ft | 310 kts | 41° |
| 2026-05-06 19:15 | 53.50547 | 7.59973 | 14696 ft | 307 kts | 193° |
| 2026-05-06 19:15 | 53.50842 | 7.58244 | 13293 ft | 261 kts | 31° |
| 2026-05-06 19:15 | 53.50556 | 7.60854 | 12179 ft | 265 kts | 166° |
| 2026-05-06 19:15 | 53.50537 | 7.62838 | 11869 ft | 229 kts | 357° |
| 2026-05-06 19:16 | 53.51912 | 7.61474 | 13088 ft | 273 kts | 342° |
| 2026-05-06 19:16 | 53.54157 | 7.61797 | 13149 ft | 398 kts | 43° |
| 2026-05-06 19:16 | 53.52834 | 7.63604 | 12046 ft | 356 kts | 242° |
| 2026-05-06 19:16 | 53.53643 | 7.62149 | 11753 ft | 211 kts | 52° |
| 2026-05-06 19:17 | 53.53352 | 7.65166 | 11102 ft | 324 kts | 127° |
| 2026-05-06 19:17 | 53.51986 | 7.67846 | 11956 ft | 312 kts | 118° |
| 2026-05-06 19:17 | 53.51117 | 7.71918 | 12624 ft | 420 kts | 107° |
| 2026-05-06 19:17 | 53.51449 | 7.76442 | 13388 ft | 404 kts | 35° |
| 2026-05-06 19:18 | 53.52969 | 7.78581 | 18123 ft | 198 kts | 125° |
| 2026-05-06 19:18 | 53.51846 | 7.79837 | 19189 ft | 220 kts | 148° |
| 2026-05-06 19:18 | 53.50532 | 7.81832 | 19806 ft | 297 kts | 131° |
| 2026-05-06 19:18 | 53.49339 | 7.85254 | 20313 ft | 385 kts | 116° |
| 2026-05-06 19:19 | 53.48389 | 7.90154 | 20269 ft | 494 kts | 100° |
| 2026-05-06 19:19 | 53.48501 | 7.96477 | 20182 ft | 592 kts | 77° |
| 2026-05-06 19:19 | 53.50198 | 8.02323 | 20673 ft | 489 kts | 60° |
| 2026-05-06 19:19 | 53.51534 | 8.06861 | 20992 ft | 390 kts | 68° |
| 2026-05-06 19:20 | 53.52633 | 8.11243 | 20835 ft | 410 kts | 66° |
| 2026-05-06 19:20 | 53.53743 | 8.15592 | 20745 ft | 414 kts | 66° |
| 2026-05-06 19:20 | 53.54653 | 8.20144 | 20923 ft | 396 kts | 75° |
| 2026-05-06 19:20 | 53.55494 | 8.24192 | 20929 ft | 359 kts | 68° |
| 2026-05-06 19:21 | 53.56506 | 8.28572 | 20868 ft | 432 kts | 70° |
| 2026-05-06 19:21 | 53.57431 | 8.32960 | 20852 ft | 384 kts | 70° |
| 2026-05-06 19:21 | 53.58272 | 8.37307 | 20864 ft | 388 kts | 70° |
| 2026-05-06 19:21 | 53.59225 | 8.41587 | 20889 ft | 394 kts | 69° |
| 2026-05-06 19:22 | 53.60178 | 8.45845 | 20884 ft | 388 kts | 69° |
| 2026-05-06 19:22 | 53.61142 | 8.50144 | 20869 ft | 395 kts | 69° |
| 2026-05-06 19:22 | 53.62114 | 8.54478 | 20930 ft | 394 kts | 69° |
| 2026-05-06 19:22 | 53.63095 | 8.58791 | 20957 ft | 396 kts | 69° |
| 2026-05-06 19:23 | 53.64034 | 8.62976 | 20915 ft | 369 kts | 69° |
| 2026-05-06 19:23 | 53.64996 | 8.67275 | 20893 ft | 391 kts | 69° |
| 2026-05-06 19:23 | 53.65967 | 8.71552 | 20909 ft | 390 kts | 68° |
| 2026-05-06 19:23 | 53.66940 | 8.75770 | 20908 ft | 384 kts | 64° |
| 2026-05-06 19:24 | 53.68382 | 8.79514 | 20871 ft | 379 kts | 47° |
| 2026-05-06 19:24 | 53.70419 | 8.82335 | 20853 ft | 383 kts | 29° |
| 2026-05-06 19:24 | 53.72908 | 8.84017 | 20863 ft | 390 kts | 11° |
| 2026-05-06 19:24 | 53.75595 | 8.84314 | 20882 ft | 387 kts | 352° |
| 2026-05-06 19:25 | 53.78175 | 8.83147 | 20869 ft | 383 kts | 334° |
| 2026-05-06 19:25 | 53.80380 | 8.80740 | 20888 ft | 376 kts | 316° |
| 2026-05-06 19:25 | 53.82093 | 8.77412 | 20925 ft | 373 kts | 297° |
| 2026-05-06 19:25 | 53.83016 | 8.73470 | 20805 ft | 359 kts | 282° |
| 2026-05-06 19:26 | 53.83316 | 8.69224 | 20864 ft | 368 kts | 267° |
| 2026-05-06 19:26 | 53.82843 | 8.64938 | 20869 ft | 374 kts | 250° |
| 2026-05-06 19:26 | 53.81950 | 8.60877 | 20883 ft | 366 kts | 251° |
| 2026-05-06 19:26 | 53.81125 | 8.56795 | 20869 ft | 367 kts | 251° |
| 2026-05-06 19:27 | 53.80274 | 8.52721 | 20869 ft | 368 kts | 250° |
| 2026-05-06 19:27 | 53.79377 | 8.48635 | 20907 ft | 374 kts | 250° |
| 2026-05-06 19:27 | 53.78488 | 8.44766 | 20943 ft | 331 kts | 248° |
| 2026-05-06 19:27 | 53.77808 | 8.41122 | 20899 ft | 337 kts | 251° |
| 2026-05-06 19:28 | 53.76901 | 8.37018 | 20810 ft | 415 kts | 249° |
| 2026-05-06 19:28 | 53.75843 | 8.32671 | 20915 ft | 366 kts | 248° |
| 2026-05-06 19:28 | 53.74922 | 8.28756 | 20915 ft | 359 kts | 250° |
| 2026-05-06 19:28 | 53.74037 | 8.24599 | 21026 ft | 386 kts | 251° |
| 2026-05-06 19:29 | 53.73173 | 8.20330 | 21855 ft | 388 kts | 251° |
| 2026-05-06 19:29 | 53.72258 | 8.15778 | 22209 ft | 412 kts | 250° |
| 2026-05-06 19:29 | 53.71078 | 8.11528 | 22117 ft | 404 kts | 233° |
| 2026-05-06 19:29 | 53.69490 | 8.07712 | 21931 ft | 414 kts | 235° |
| 2026-05-06 19:30 | 53.67912 | 8.03819 | 22007 ft | 382 kts | 238° |
| 2026-05-06 19:30 | 53.66417 | 7.99940 | 21970 ft | 396 kts | 237° |
| 2026-05-06 19:30 | 53.64880 | 7.96074 | 21937 ft | 396 kts | 237° |
| 2026-05-06 19:30 | 53.63268 | 7.92383 | 21854 ft | 409 kts | 237° |
| 2026-05-06 19:31 | 53.61720 | 7.88382 | 21971 ft | 407 kts | 238° |
| 2026-05-06 19:31 | 53.60124 | 7.84420 | 21760 ft | 402 kts | 229° |
| 2026-05-06 19:31 | 53.57128 | 7.76955 | 22324 ft | 389 kts | 236° |
| 2026-05-06 19:32 | 53.55348 | 7.73435 | 22751 ft | 396 kts | 220° |
| 2026-05-06 19:32 | 53.52851 | 7.71276 | 23239 ft | 423 kts | 196° |
| 2026-05-06 19:32 | 53.49990 | 7.70797 | 23772 ft | 413 kts | 191° |
| 2026-05-06 19:32 | 53.47138 | 7.70352 | 24349 ft | 415 kts | 187° |
| 2026-05-06 19:33 | 53.44234 | 7.69957 | 24942 ft | 417 kts | 187° |
| 2026-05-06 19:33 | 53.41323 | 7.69561 | 25456 ft | 421 kts | 187° |
| 2026-05-06 19:33 | 53.38423 | 7.69025 | 26285 ft | 421 kts | 189° |
| 2026-05-06 19:33 | 53.35461 | 7.68556 | 27358 ft | 424 kts | 187° |
| 2026-05-06 19:34 | 53.32507 | 7.68072 | 28503 ft | 435 kts | 187° |
| 2026-05-06 19:34 | 53.29425 | 7.67572 | 29768 ft | 453 kts | 187° |
| 2026-05-06 19:34 | 53.26290 | 7.67069 | 31055 ft | 463 kts | 187° |
| 2026-05-06 19:34 | 53.24162 | 7.66735 | 31936 ft | 456 kts | 187° |
| 2026-05-06 19:35 | 53.19870 | 7.66104 | 33520 ft | 475 kts | 187° |
| 2026-05-06 19:35 | 53.16551 | 7.65579 | 34673 ft | 484 kts | 187° |
| 2026-05-06 19:35 | 53.13158 | 7.65073 | 35804 ft | 495 kts | 187° |
| 2026-05-06 19:35 | 53.10826 | 7.64723 | 36411 ft | 507 kts | 187° |
| 2026-05-06 19:36 | 53.07278 | 7.64180 | 37072 ft | 518 kts | 187° |
| 2026-05-06 19:36 | 53.03664 | 7.63604 | 37912 ft | 517 kts | 187° |
| 2026-05-06 19:36 | 53.00164 | 7.63050 | 38707 ft | 493 kts | 187° |
| 2026-05-06 19:36 | 52.96772 | 7.62519 | 39285 ft | 487 kts | 187° |
| 2026-05-06 19:37 | 52.93375 | 7.61997 | 39917 ft | 494 kts | 187° |
| 2026-05-06 19:37 | 52.89828 | 7.61529 | 40105 ft | 514 kts | 187° |
| 2026-05-06 19:37 | 52.86303 | 7.61035 | 40730 ft | 515 kts | 186° |
| 2026-05-06 19:37 | 52.82680 | 7.60538 | 40880 ft | 513 kts | 186° |
| 2026-05-06 19:38 | 52.75520 | 7.59577 | 40897 ft | 523 kts | 186° |
| 2026-05-06 19:38 | 52.72000 | 7.59109 | 40880 ft | 507 kts | 186° |
| 2026-05-06 19:38 | 52.68504 | 7.58712 | 40910 ft | 501 kts | 186° |
| 2026-05-06 19:39 | 52.64974 | 7.58306 | 40906 ft | 512 kts | 186° |
| 2026-05-06 19:39 | 52.61438 | 7.57891 | 40940 ft | 505 kts | 186° |
| 2026-05-06 19:39 | 52.54374 | 7.56956 | 40945 ft | 508 kts | 186° |
| 2026-05-06 19:40 | 52.47344 | 7.56002 | 40960 ft | 507 kts | 186° |
| 2026-05-06 19:40 | 52.40341 | 7.55024 | 40977 ft | 509 kts | 187° |
| 2026-05-06 19:41 | 52.36751 | 7.54641 | 40894 ft | 522 kts | 181° |
| 2026-05-06 19:41 | 52.33125 | 7.55397 | 40911 ft | 535 kts | 168° |
| 2026-05-06 19:41 | 52.29609 | 7.57489 | 40910 ft | 545 kts | 154° |
| 2026-05-06 19:41 | 52.26350 | 7.60780 | 40913 ft | 550 kts | 149° |
| 2026-05-06 19:42 | 52.19673 | 7.66929 | 40955 ft | 552 kts | 153° |
| 2026-05-06 19:42 | 52.12989 | 7.73046 | 40970 ft | 552 kts | 153° |
| 2026-05-06 19:43 | 52.06361 | 7.79105 | 41020 ft | 552 kts | 153° |
| 2026-05-06 19:43 | 51.99499 | 7.85359 | 40781 ft | 576 kts | 153° |
| 2026-05-06 19:44 | 51.92571 | 7.91623 | 40983 ft | 581 kts | 153° |
| 2026-05-06 19:44 | 51.88979 | 7.94855 | 41147 ft | 612 kts | 153° |
| 2026-05-06 19:44 | 51.85092 | 7.98331 | 41159 ft | 654 kts | 153° |
| 2026-05-06 19:45 | 51.81147 | 8.01851 | 41112 ft | 631 kts | 153° |
| 2026-05-06 19:45 | 51.77429 | 8.05175 | 40879 ft | 582 kts | 153° |
| 2026-05-06 19:45 | 51.74039 | 8.08226 | 40728 ft | 553 kts | 153° |
| 2026-05-06 19:45 | 51.70579 | 8.11336 | 40365 ft | 578 kts | 153° |
| 2026-05-06 19:46 | 51.66995 | 8.14546 | 40362 ft | 596 kts | 153° |
| 2026-05-06 19:46 | 51.63421 | 8.17654 | 40511 ft | 586 kts | 155° |
| 2026-05-06 19:46 | 51.59737 | 8.20712 | 40911 ft | 602 kts | 154° |
| 2026-05-06 19:46 | 51.56041 | 8.23791 | 41070 ft | 603 kts | 154° |
| 2026-05-06 19:47 | 51.52316 | 8.26998 | 40936 ft | 604 kts | 153° |
| 2026-05-06 19:47 | 51.48676 | 8.30246 | 40827 ft | 601 kts | 153° |
| 2026-05-06 19:47 | 51.41204 | 8.36391 | 40818 ft | 601 kts | 154° |
| 2026-05-06 19:48 | 51.33786 | 8.42503 | 40736 ft | 601 kts | 155° |
| 2026-05-06 19:48 | 51.30035 | 8.45567 | 40515 ft | 601 kts | 153° |
| 2026-05-06 19:48 | 51.26464 | 8.48878 | 40593 ft | 602 kts | 151° |
| 2026-05-06 19:49 | 51.19243 | 8.55809 | 40579 ft | 601 kts | 151° |
| 2026-05-06 19:49 | 51.12118 | 8.62692 | 40452 ft | 602 kts | 152° |
| 2026-05-06 19:50 | 51.08490 | 8.66094 | 40617 ft | 601 kts | 152° |
| 2026-05-06 19:50 | 51.04925 | 8.69417 | 40702 ft | 602 kts | 152° |
| 2026-05-06 19:50 | 50.97675 | 8.76139 | 40821 ft | 599 kts | 152° |
| 2026-05-06 19:51 | 50.90425 | 8.82834 | 40900 ft | 602 kts | 152° |
| 2026-05-06 19:51 | 50.83196 | 8.89502 | 40942 ft | 601 kts | 152° |
| 2026-05-06 19:52 | 50.75950 | 8.96173 | 40927 ft | 601 kts | 152° |
| 2026-05-06 19:52 | 50.68727 | 9.02812 | 40987 ft | 600 kts | 152° |
| 2026-05-06 19:53 | 50.61554 | 9.09393 | 41058 ft | 600 kts | 152° |
| 2026-05-06 19:53 | 50.54301 | 9.15836 | 40940 ft | 599 kts | 153° |
| 2026-05-06 19:54 | 50.47022 | 9.22306 | 40769 ft | 599 kts | 153° |
| 2026-05-06 19:54 | 50.39798 | 9.28785 | 40729 ft | 599 kts | 152° |
| 2026-05-06 19:55 | 50.32602 | 9.35261 | 40737 ft | 598 kts | 152° |
| 2026-05-06 19:55 | 50.28940 | 9.38552 | 40897 ft | 599 kts | 152° |
| 2026-05-06 19:55 | 50.25330 | 9.41794 | 40965 ft | 599 kts | 152° |
| 2026-05-06 19:56 | 50.18120 | 9.48264 | 40982 ft | 599 kts | 152° |
| 2026-05-06 19:56 | 50.14524 | 9.51486 | 40880 ft | 598 kts | 152° |
| 2026-05-06 19:56 | 50.10885 | 9.54745 | 40803 ft | 598 kts | 152° |
| 2026-05-06 19:57 | 50.03664 | 9.61209 | 40738 ft | 598 kts | 152° |
| 2026-05-06 19:57 | 49.96463 | 9.67650 | 40701 ft | 598 kts | 153° |
| 2026-05-06 19:58 | 49.89151 | 9.73787 | 40747 ft | 597 kts | 154° |
| 2026-05-06 19:58 | 49.81847 | 9.80010 | 40630 ft | 563 kts | 140° |
| 2026-05-06 19:59 | 49.78697 | 9.82942 | 40639 ft | 532 kts | 153° |
| 2026-05-06 19:59 | 49.75444 | 9.85758 | 40676 ft | 541 kts | 153° |
| 2026-05-06 19:59 | 49.68803 | 9.91398 | 40780 ft | 545 kts | 154° |
| 2026-05-06 20:00 | 49.61938 | 9.95958 | 40320 ft | 535 kts | 162° |
| 2026-05-06 20:00 | 49.58459 | 9.97969 | 39274 ft | 531 kts | 162° |
| 2026-05-06 20:00 | 49.55066 | 9.99940 | 38237 ft | 515 kts | 162° |
| 2026-05-06 20:01 | 49.51753 | 10.01864 | 37080 ft | 494 kts | 162° |
| 2026-05-06 20:01 | 49.48579 | 10.03717 | 35983 ft | 477 kts | 162° |
| 2026-05-06 20:01 | 49.45562 | 10.05485 | 34961 ft | 460 kts | 162° |
| 2026-05-06 20:01 | 49.42622 | 10.07240 | 33951 ft | 438 kts | 161° |
| 2026-05-06 20:02 | 49.39878 | 10.08905 | 32868 ft | 418 kts | 161° |
| 2026-05-06 20:02 | 49.37139 | 10.10514 | 31789 ft | 433 kts | 161° |
| 2026-05-06 20:02 | 49.34345 | 10.12206 | 30748 ft | 431 kts | 160° |
| 2026-05-06 20:02 | 49.31570 | 10.14012 | 29570 ft | 435 kts | 160° |
| 2026-05-06 20:03 | 49.28736 | 10.15666 | 28166 ft | 445 kts | 162° |
| 2026-05-06 20:03 | 49.25789 | 10.17268 | 26852 ft | 445 kts | 161° |
| 2026-05-06 20:03 | 49.23000 | 10.18891 | 25693 ft | 407 kts | 160° |
| 2026-05-06 20:03 | 49.20397 | 10.20411 | 24720 ft | 393 kts | 162° |
| 2026-05-06 20:04 | 49.17872 | 10.21916 | 23763 ft | 390 kts | 153° |
| 2026-05-06 20:04 | 49.15765 | 10.24579 | 22552 ft | 399 kts | 142° |
| 2026-05-06 20:04 | 49.14239 | 10.27792 | 21286 ft | 353 kts | 123° |
| 2026-05-06 20:04 | 49.12787 | 10.31067 | 20657 ft | 397 kts | 129° |
| 2026-05-06 20:05 | 49.11144 | 10.34522 | 19632 ft | 404 kts | 128° |
| 2026-05-06 20:05 | 49.09589 | 10.37962 | 18882 ft | 378 kts | 127° |
| 2026-05-06 20:05 | 49.08621 | 10.41659 | 18824 ft | 394 kts | 102° |
| 2026-05-06 20:05 | 49.08483 | 10.46027 | 18897 ft | 420 kts | 94° |
| 2026-05-06 20:06 | 49.08446 | 10.50464 | 18901 ft | 421 kts | 94° |
| 2026-05-06 20:06 | 49.08415 | 10.54880 | 18874 ft | 418 kts | 94° |
| 2026-05-06 20:06 | 49.08384 | 10.59331 | 18905 ft | 415 kts | 94° |
| 2026-05-06 20:06 | 49.08357 | 10.63714 | 19001 ft | 410 kts | 94° |
| 2026-05-06 20:07 | 49.08330 | 10.68125 | 18906 ft | 413 kts | 94° |
| 2026-05-06 20:07 | 49.08296 | 10.72566 | 18322 ft | 426 kts | 94° |
| 2026-05-06 20:07 | 49.08252 | 10.77152 | 17725 ft | 438 kts | 94° |
| 2026-05-06 20:07 | 49.08205 | 10.81810 | 17203 ft | 444 kts | 93° |
| 2026-05-06 20:08 | 49.08155 | 10.86539 | 16657 ft | 448 kts | 93° |
| 2026-05-06 20:08 | 49.08101 | 10.91295 | 16067 ft | 452 kts | 95° |
| 2026-05-06 20:08 | 49.07501 | 10.95979 | 15450 ft | 448 kts | 113° |
| 2026-05-06 20:08 | 49.06051 | 11.00119 | 15002 ft | 442 kts | 126° |
| 2026-05-06 20:09 | 49.04487 | 11.03844 | 14474 ft | 385 kts | 125° |
| 2026-05-06 20:09 | 49.03160 | 11.07062 | 13955 ft | 339 kts | 125° |
| 2026-05-06 20:09 | 49.01882 | 11.10143 | 13527 ft | 347 kts | 127° |
| 2026-05-06 20:09 | 49.00501 | 11.13186 | 13087 ft | 354 kts | 128° |
| 2026-05-06 20:10 | 48.99068 | 11.16286 | 12622 ft | 357 kts | 128° |
| 2026-05-06 20:10 | 48.97735 | 11.19217 | 12111 ft | 330 kts | 128° |
| 2026-05-06 20:10 | 48.96391 | 11.22175 | 11732 ft | 343 kts | 128° |
| 2026-05-06 20:10 | 48.95035 | 11.25155 | 11288 ft | 341 kts | 128° |
| 2026-05-06 20:11 | 48.93685 | 11.28123 | 10828 ft | 341 kts | 128° |
| 2026-05-06 20:11 | 48.92383 | 11.31102 | 10403 ft | 340 kts | 124° |
| 2026-05-06 20:11 | 48.91250 | 11.34317 | 9982 ft | 345 kts | 116° |
| 2026-05-06 20:11 | 48.90416 | 11.37767 | 9487 ft | 350 kts | 110° |
| 2026-05-06 20:12 | 48.89666 | 11.41332 | 8958 ft | 361 kts | 111° |
| 2026-05-06 20:12 | 48.88574 | 11.44815 | 8280 ft | 370 kts | 128° |
| 2026-05-06 20:12 | 48.87525 | 11.46876 | 8084 ft | 371 kts | 132° |
| 2026-05-06 20:12 | 48.85737 | 11.49733 | 7809 ft | 359 kts | 141° |
| 2026-05-06 20:13 | 48.83092 | 11.52360 | 7410 ft | 325 kts | 157° |
| 2026-05-06 20:13 | 48.81060 | 11.53573 | 7069 ft | 301 kts | 166° |
| 2026-05-06 20:13 | 48.79704 | 11.54184 | 6740 ft | 307 kts | 168° |
| 2026-05-06 20:13 | 48.77582 | 11.54890 | 6248 ft | 319 kts | 173° |
| 2026-05-06 20:14 | 48.75402 | 11.55393 | 5735 ft | 310 kts | 176° |
| 2026-05-06 20:14 | 48.73359 | 11.55663 | 5209 ft | 277 kts | 186° |
| 2026-05-06 20:14 | 48.71733 | 11.54543 | 4786 ft | 244 kts | 236° |
| 2026-05-06 20:14 | 48.71142 | 11.52341 | 4300 ft | 213 kts | 264° |
| 2026-05-06 20:15 | 48.71101 | 11.50094 | 4015 ft | 218 kts | 269° |
| 2026-05-06 20:15 | 48.71066 | 11.47858 | 3771 ft | 202 kts | 270° |
| 2026-05-06 20:15 | 48.71078 | 11.45885 | 3580 ft | 177 kts | 271° |
| 2026-05-06 20:15 | 48.71056 | 11.43863 | 3396 ft | 223 kts | 270° |
| 2026-05-06 20:16 | 48.71036 | 11.41441 | 3212 ft | 232 kts | 270° |
| 2026-05-06 20:16 | 48.71018 | 11.39041 | 3009 ft | 218 kts | 270° |
| 2026-05-06 20:16 | 48.71005 | 11.36798 | 2855 ft | 202 kts | 270° |
| 2026-05-06 20:16 | 48.71008 | 11.34647 | 2621 ft | 206 kts | 270° |
| 2026-05-06 20:17 | 48.71012 | 11.32496 | 2435 ft | 212 kts | 270° |
| 2026-05-06 20:17 | 48.71032 | 11.30254 | 2235 ft | 214 kts | 270° |
| 2026-05-06 20:17 | 48.71051 | 11.28003 | 1916 ft | 211 kts | 269° |
| 2026-05-06 20:17 | 48.71074 | 11.25634 | 1680 ft | 230 kts | 269° |
| 2026-05-06 20:18 | 48.71091 | 11.23370 | 1329 ft | 196 kts | 268° |
| 2026-05-06 20:18 | 48.71093 | 11.21655 | 1251 ft | 121 kts | 271° |
| 2026-05-06 20:18 | 48.71102 | 11.20835 | 1251 ft | 51 kts | 271° |
| 2026-05-06 20:18 | 48.71105 | 11.20384 | 1248 ft | 34 kts | 270° |
| 2026-05-06 20:19 | 48.71017 | 11.20328 | 1250 ft | 15 kts | 96° |
| 2026-05-06 20:19 | 48.71015 | 11.20480 | 1250 ft | 14 kts | 91° |
| 2026-05-06 20:19 | 48.71014 | 11.20618 | 1255 ft | 12 kts | 90° |
| 2026-05-06 20:19 | 48.71013 | 11.20784 | 1253 ft | 22 kts | 91° |
| 2026-05-06 20:20 | 48.71012 | 11.20986 | 1256 ft | 18 kts | 90° |
| 2026-05-06 20:20 | 48.71012 | 11.21166 | 1255 ft | 16 kts | 90° |
| 2026-05-06 20:20 | 48.71011 | 11.21359 | 1256 ft | 19 kts | 91° |
| 2026-05-06 20:20 | 48.71010 | 11.21559 | 1251 ft | 19 kts | 90° |
| 2026-05-06 20:21 | 48.71008 | 11.21760 | 1251 ft | 19 kts | 91° |
| 2026-05-06 20:21 | 48.71006 | 11.21950 | 1250 ft | 17 kts | 90° |
| 2026-05-06 20:21 | 48.71006 | 11.22130 | 1250 ft | 17 kts | 89° |
| 2026-05-06 20:21 | 48.71006 | 11.22320 | 1250 ft | 18 kts | 91° |
| 2026-05-06 20:22 | 48.71004 | 11.22513 | 1251 ft | 18 kts | 90° |
| 2026-05-06 20:22 | 48.71003 | 11.22719 | 1251 ft | 20 kts | 90° |
| 2026-05-06 20:22 | 48.70984 | 11.22826 | 1251 ft | 11 kts | 172° |
| 2026-05-06 20:22 | 48.70910 | 11.22776 | 1253 ft | 12 kts | 197° |
| 2026-05-06 20:23 | 48.70845 | 11.22806 | 1251 ft | 6 kts | 155° |
| 2026-05-06 20:23 | 48.70832 | 11.22777 | 1251 ft | 3 kts | 296° |
| 2026-05-06 20:23 | 48.70837 | 11.22776 | 1251 ft | 1 kts | 1° |
| 2026-05-06 20:23 | 48.70841 | 11.22781 | 1251 ft | 1 kts | 44° |
| 2026-05-06 20:24 | 48.70841 | 11.22782 | 1251 ft | 0 kts | 44° |